createdAt,value
2018-08-30T00:04:16.243Z,47.8
2018-08-30T00:09:14.576Z,47.8
2018-08-30T00:14:12.565Z,47.8
2018-08-30T00:19:10.421Z,47.8
2018-08-30T00:24:08.694Z,47.8
2018-08-30T00:29:07.170Z,47.8
2018-08-30T00:34:05.583Z,47.9
2018-08-30T00:39:04.017Z,47.8
2018-08-30T00:44:02.481Z,47.9
2018-08-30T00:49:00.684Z,47.9
2018-08-30T00:53:59.029Z,47.9
2018-08-30T00:58:56.733Z,47.9
2018-08-30T01:03:55.252Z,47.9
2018-08-30T01:08:53.530Z,47.9
2018-08-30T01:13:51.889Z,47.9
2018-08-30T01:18:50.116Z,47.9
2018-08-30T01:23:48.572Z,48
2018-08-30T01:28:46.960Z,47.9
2018-08-30T01:33:45.325Z,48
2018-08-30T01:38:43.572Z,48
2018-08-30T01:43:41.629Z,48
2018-08-30T01:48:40.061Z,48
2018-08-30T01:53:38.430Z,48
2018-08-30T01:58:36.816Z,48
2018-08-30T02:03:35.397Z,48
2018-08-30T02:08:33.703Z,48
2018-08-30T02:13:32.154Z,48
2018-08-30T02:18:30.524Z,48
2018-08-30T02:23:29.035Z,48.1
2018-08-30T02:28:27.477Z,48.1
2018-08-30T02:33:25.786Z,48.1
2018-08-30T02:38:24.139Z,48.1
2018-08-30T02:43:22.378Z,48.1
2018-08-30T02:48:20.810Z,48.1
2018-08-30T02:53:19.223Z,48.1
2018-08-30T02:58:17.552Z,48.1
2018-08-30T03:03:15.964Z,48.2
2018-08-30T03:08:14.214Z,48.2
2018-08-30T03:13:12.462Z,48.2
2018-08-30T03:18:10.366Z,48.2
2018-08-30T03:23:08.839Z,48.2
2018-08-30T03:28:07.276Z,48.2
2018-08-30T03:33:05.664Z,48.2
2018-08-30T03:38:04.130Z,48.2
2018-08-30T03:43:01.949Z,48.2
2018-08-30T03:48:00.221Z,48.2
2018-08-30T03:52:58.545Z,48.2
2018-08-30T03:57:57.052Z,48.2
2018-08-30T04:02:55.366Z,48.3
2018-08-30T04:07:53.335Z,48.2
2018-08-30T04:12:51.731Z,48.3
2018-08-30T04:17:50.121Z,48.2
2018-08-30T04:22:48.565Z,48.3
2018-08-30T04:27:46.690Z,48.3
2018-08-30T04:32:45.059Z,48.3
2018-08-30T04:37:43.275Z,48.3
2018-08-30T04:42:41.903Z,48.2
2018-08-30T04:47:40.319Z,48.3
2018-08-30T04:52:38.154Z,48.3
2018-08-30T04:57:36.638Z,48.2
2018-08-30T05:02:34.877Z,48.1
2018-08-30T05:07:33.075Z,48.2
2018-08-30T05:12:31.712Z,48.2
2018-08-30T05:17:30.437Z,48.2
2018-08-30T05:22:28.806Z,48.3
2018-08-30T05:27:27.122Z,48.3
2018-08-30T05:32:25.583Z,48.4
2018-08-30T05:37:23.975Z,48.5
2018-08-30T05:42:22.302Z,48.6
2018-08-30T05:47:20.761Z,48.8
2018-08-30T05:52:19.106Z,48.8
2018-08-30T05:57:17.765Z,49
2018-08-30T06:02:16.154Z,49
2018-08-30T06:07:14.731Z,49.2
2018-08-30T06:12:13.229Z,49.3
2018-08-30T06:17:12.171Z,49.5
2018-08-30T06:22:10.127Z,49.4
2018-08-30T06:27:08.438Z,49.5
2018-08-30T06:32:06.824Z,49.7
2018-08-30T06:37:05.349Z,49.9
2018-08-30T06:42:03.734Z,49.8
2018-08-30T06:47:01.969Z,49.9
2018-08-30T06:52:00.357Z,50
2018-08-30T06:56:58.884Z,50.2
2018-08-30T07:01:57.389Z,50.3
2018-08-30T07:06:55.876Z,50.4
2018-08-30T07:11:54.410Z,50.5
2018-08-30T07:16:52.924Z,50.5
2018-08-30T07:21:51.324Z,50.6
2018-08-30T07:26:49.949Z,50.7
2018-08-30T07:31:48.387Z,50.8
2018-08-30T07:36:46.888Z,50.8
2018-08-30T07:41:45.293Z,50.9
2018-08-30T07:46:43.794Z,51
2018-08-30T07:51:42.269Z,51
2018-08-30T07:56:40.706Z,51.1
2018-08-30T08:01:38.744Z,51.2
2018-08-30T08:06:37.453Z,51.2
2018-08-30T08:11:35.877Z,51.3
2018-08-30T08:16:34.172Z,51.3
2018-08-30T08:21:32.558Z,51.4
2018-08-30T08:26:31.045Z,51.5
2018-08-30T08:31:29.654Z,51.5
2018-08-30T08:36:28.133Z,51.6
2018-08-30T08:41:26.968Z,51.6
2018-08-30T08:46:25.422Z,51.6
2018-08-30T08:51:24.008Z,51.7
2018-08-30T08:56:22.340Z,51.7
2018-08-30T09:01:21.005Z,51.8
2018-08-30T09:06:19.904Z,51.8
2018-08-30T09:11:18.190Z,51.9
2018-08-30T09:16:16.643Z,51.9
2018-08-30T09:21:15.074Z,51.9
2018-08-30T09:26:13.591Z,52
2018-08-30T09:31:12.193Z,52
2018-08-30T09:36:10.631Z,52.1
2018-08-30T09:41:09.005Z,52.1
2018-08-30T09:46:07.369Z,52
2018-08-30T09:51:05.720Z,52
2018-08-30T09:56:04.297Z,52
2018-08-30T10:01:02.720Z,52
2018-08-30T10:06:01.413Z,52
2018-08-30T10:11:00.052Z,52
2018-08-30T10:15:58.690Z,52
2018-08-30T10:20:57.157Z,51.9
2018-08-30T10:25:55.617Z,51.9
2018-08-30T10:30:54.533Z,51.9
2018-08-30T10:35:52.814Z,51.9
2018-08-30T10:40:51.509Z,51.9
2018-08-30T10:45:50.015Z,51.9
2018-08-30T10:50:48.473Z,51.9
2018-08-30T10:55:46.839Z,51.9
2018-08-30T11:00:46.314Z,51.8
2018-08-30T11:05:44.642Z,51.7
2018-08-30T11:10:43.319Z,51.7
2018-08-30T11:15:41.942Z,51.7
2018-08-30T11:20:40.453Z,51.6
2018-08-30T11:25:38.910Z,51.6
2018-08-30T11:30:37.439Z,51.5
2018-08-30T11:35:35.965Z,51.5
2018-08-30T11:40:34.501Z,51.4
2018-08-30T11:45:35.778Z,51.4
2018-08-30T11:50:34.538Z,51.3
2018-08-30T11:55:32.900Z,51.3
2018-08-30T12:00:31.479Z,51.2
2018-08-30T12:05:29.828Z,51.1
2018-08-30T12:10:28.712Z,51
2018-08-30T12:15:27.314Z,51
2018-08-30T12:20:26.238Z,50.9
2018-08-30T12:25:24.985Z,50.8
2018-08-30T12:30:24.009Z,50.8
2018-08-30T12:35:23.054Z,50.7
2018-08-30T12:40:22.055Z,50.7
2018-08-30T12:45:21.017Z,50.6
2018-08-30T12:50:20.192Z,50.5
2018-08-30T12:55:18.900Z,50.4
2018-08-30T13:00:18.187Z,50.3
2018-08-30T13:05:17.480Z,50.2
2018-08-30T13:10:16.464Z,50.2
2018-08-30T13:15:16.257Z,50
2018-08-30T13:20:15.733Z,50
2018-08-30T13:25:14.680Z,49.9
2018-08-30T13:30:14.246Z,49.9
2018-08-30T13:35:14.180Z,49.8
2018-08-30T13:40:14.173Z,49.6
2018-08-30T13:45:13.709Z,49.5
2018-08-30T13:50:13.876Z,49.3
2018-08-30T13:55:13.303Z,49.3
2018-08-30T14:00:13.684Z,49.2
2018-08-30T14:05:13.337Z,49
2018-08-30T14:10:13.244Z,48.9
2018-08-30T14:15:13.342Z,48.8
2018-08-30T14:20:11.862Z,48.8
2018-08-30T14:25:10.488Z,48.7
2018-08-30T14:30:09.140Z,48.6
2018-08-30T14:35:07.631Z,48.6
2018-08-30T14:40:09.036Z,48.5
2018-08-30T14:45:07.513Z,48.4
2018-08-30T14:50:05.998Z,48.4
2018-08-30T14:55:04.510Z,48.4
2018-08-30T15:00:03.151Z,48.3
2018-08-30T15:05:01.826Z,48.3
2018-08-30T15:10:00.272Z,48.2
2018-08-30T15:14:58.822Z,48.1
2018-08-30T15:19:57.236Z,48.1
2018-08-30T15:24:56.052Z,48
2018-08-30T15:29:54.602Z,47.9
2018-08-30T15:34:53.087Z,47.8
2018-08-30T15:39:51.672Z,47.7
2018-08-30T15:44:50.321Z,47.6
2018-08-30T15:49:48.933Z,47.6
2018-08-30T15:54:47.568Z,47.5
2018-08-30T15:59:46.255Z,47.4
2018-08-30T16:04:44.613Z,47.3
2018-08-30T16:09:43.097Z,47.2
2018-08-30T16:14:41.950Z,47.1
2018-08-30T16:19:40.385Z,47
2018-08-30T16:24:38.947Z,46.9
2018-08-30T16:29:37.522Z,46.8
2018-08-30T16:34:36.047Z,46.7
2018-08-30T16:39:34.568Z,46.7
2018-08-30T16:44:33.093Z,46.5
2018-08-30T16:49:31.314Z,46.4
2018-08-30T16:54:29.980Z,46.3
2018-08-30T16:59:28.985Z,46.3
2018-08-30T17:04:27.808Z,46.2
2018-08-30T17:09:26.238Z,46.1
2018-08-30T17:14:24.442Z,46.1
2018-08-30T17:19:22.884Z,46
2018-08-30T17:24:21.785Z,46
2018-08-30T17:29:20.125Z,46
2018-08-30T17:34:18.658Z,45.9
2018-08-30T17:39:17.152Z,45.9
2018-08-30T17:44:15.251Z,45.9
2018-08-30T17:49:13.821Z,45.9
2018-08-30T17:54:12.382Z,45.9
2018-08-30T17:59:11.133Z,45.8
2018-08-30T18:04:09.617Z,45.8
2018-08-30T18:09:08.120Z,45.8
2018-08-30T18:14:07.063Z,45.8
2018-08-30T18:19:05.565Z,45.8
2018-08-30T18:24:04.138Z,45.8
2018-08-30T18:29:02.930Z,45.8
2018-08-30T18:34:01.291Z,45.8
2018-08-30T18:38:59.973Z,45.8
2018-08-30T18:43:58.553Z,45.8
2018-08-30T18:48:57.129Z,45.8
2018-08-30T18:53:55.501Z,45.8
2018-08-30T18:58:53.619Z,45.8
2018-08-30T19:03:52.190Z,45.8
2018-08-30T19:08:50.611Z,45.8
2018-08-30T19:13:49.072Z,45.8
2018-08-30T19:18:47.519Z,45.8
2018-08-30T19:23:46.018Z,45.8
2018-08-30T19:28:44.519Z,45.8
2018-08-30T19:33:43.336Z,45.8
2018-08-30T19:38:41.793Z,45.8
2018-08-30T19:43:40.303Z,45.8
2018-08-30T19:48:38.870Z,45.8
2018-08-30T19:53:37.126Z,45.8
2018-08-30T19:58:35.770Z,45.8
2018-08-30T20:03:34.454Z,45.8
2018-08-30T20:08:32.639Z,45.8
2018-08-30T20:13:31.148Z,45.8
2018-08-30T20:18:29.503Z,45.8
2018-08-30T20:23:28.127Z,45.8
2018-08-30T20:28:26.569Z,45.8
2018-08-30T20:33:24.795Z,45.8
2018-08-30T20:38:23.197Z,45.8
2018-08-30T20:43:21.808Z,45.8
2018-08-30T20:48:19.862Z,45.9
2018-08-30T20:53:18.261Z,45.9
2018-08-30T20:58:16.760Z,45.9
2018-08-30T21:03:14.819Z,45.9
2018-08-30T21:08:13.100Z,45.9
2018-08-30T21:13:11.635Z,46
2018-08-30T21:18:09.957Z,46
2018-08-30T21:23:08.079Z,46
2018-08-30T21:28:06.558Z,46
2018-08-30T21:33:04.873Z,46.1
2018-08-30T21:38:03.433Z,46.1
2018-08-30T21:43:01.824Z,46.1
2018-08-30T21:48:00.393Z,46.1
2018-08-30T21:52:58.621Z,46.1
2018-08-30T21:57:57.029Z,46.1
2018-08-30T22:02:55.399Z,46.2
2018-08-30T22:07:53.731Z,46.2
2018-08-30T22:12:52.308Z,46.2
2018-08-30T22:17:50.797Z,46.2
2018-08-30T22:22:49.158Z,46.2
2018-08-30T22:27:47.597Z,46.3
2018-08-30T22:32:46.066Z,46.3
2018-08-30T22:37:44.287Z,46.3
2018-08-30T22:42:42.764Z,46.3
2018-08-30T22:47:41.119Z,46.3
2018-08-30T22:52:39.699Z,46.4
2018-08-30T22:57:38.173Z,46.4
2018-08-30T23:02:36.523Z,46.4
2018-08-30T23:07:34.956Z,46.4
2018-08-30T23:12:33.532Z,46.4
2018-08-30T23:17:31.854Z,46.4
2018-08-30T23:22:30.399Z,46.4
2018-08-30T23:27:28.823Z,46.4
2018-08-30T23:32:27.352Z,46.5
2018-08-30T23:37:25.835Z,46.5
2018-08-30T23:42:23.643Z,46.5
2018-08-30T23:47:26.195Z,46.5
2018-08-30T23:52:23.483Z,46.5
2018-08-30T23:57:21.948Z,46.5
